createdAt,value
2018-06-21T00:01:40.383Z,70.50
2018-06-21T00:04:09.478Z,70.50
2018-06-21T00:06:38.250Z,70.70
2018-06-21T00:09:08.327Z,71.40
2018-06-21T00:11:37.382Z,71.10
2018-06-21T00:14:06.601Z,71.00
2018-06-21T00:16:35.467Z,71.00
2018-06-21T00:19:04.283Z,71.20
2018-06-21T00:21:33.402Z,71.90
2018-06-21T00:24:02.179Z,71.90
2018-06-21T00:26:31.347Z,72.20
2018-06-21T00:29:00.127Z,72.20
2018-06-21T00:31:29.206Z,72.60
2018-06-21T00:33:57.958Z,71.80
2018-06-21T00:36:26.795Z,71.70
2018-06-21T00:38:55.878Z,72.30
2018-06-21T00:41:24.662Z,72.60
2018-06-21T00:43:54.078Z,72.50
2018-06-21T00:46:23.695Z,72.90
2018-06-21T00:48:52.451Z,73.20
2018-06-21T00:51:21.639Z,73.00
2018-06-21T00:53:51.515Z,73.10
2018-06-21T00:56:20.808Z,72.50
2018-06-21T01:01:19.021Z,72.30
2018-06-21T01:03:48.230Z,72.30
2018-06-21T01:06:17.446Z,72.40
2018-06-21T01:08:46.250Z,72.30
2018-06-21T01:11:15.454Z,72.50
2018-06-21T01:13:44.509Z,72.60
2018-06-21T01:16:13.339Z,69.60
2018-06-21T01:18:42.419Z,72.80
2018-06-21T01:21:11.202Z,73.10
2018-06-21T01:23:40.333Z,73.60
2018-06-21T01:26:09.173Z,73.80
2018-06-21T01:28:37.961Z,73.90
2018-06-21T01:31:06.811Z,73.80
2018-06-21T01:33:35.594Z,73.70
2018-06-21T01:36:04.616Z,73.90
2018-06-21T01:38:33.986Z,74.50
2018-06-21T01:41:02.848Z,74.50
2018-06-21T01:43:31.686Z,75.50
2018-06-21T01:48:29.713Z,74.30
2018-06-21T01:50:58.951Z,74.70
2018-06-21T01:53:28.032Z,75.10
2018-06-21T01:55:57.247Z,75.10
2018-06-21T01:58:26.039Z,75.60
2018-06-21T02:00:54.806Z,75.40
2018-06-21T02:03:24.144Z,75.40
2018-06-21T02:05:53.319Z,75.80
2018-06-21T02:08:22.318Z,76.00
2018-06-21T02:15:48.858Z,76.60
2018-06-21T02:18:17.629Z,76.50
2018-06-21T02:20:47.101Z,76.80
2018-06-21T02:23:16.233Z,76.80
2018-06-21T02:25:45.019Z,77.20
2018-06-21T02:28:14.118Z,77.20
2018-06-21T02:30:42.918Z,77.60
2018-06-21T02:33:12.013Z,78.00
2018-06-21T02:35:41.482Z,77.90
2018-06-21T02:38:10.310Z,78.00
2018-06-21T02:40:39.522Z,78.50
2018-06-21T02:43:08.750Z,78.50
2018-06-21T02:45:37.600Z,78.30
2018-06-21T02:48:06.390Z,78.30
2018-06-21T02:50:35.221Z,78.70
2018-06-21T02:53:04.349Z,78.80
2018-06-21T02:55:33.123Z,79.00
2018-06-21T02:58:01.915Z,78.80
2018-06-21T03:00:31.055Z,78.80
2018-06-21T03:02:59.893Z,79.10
2018-06-21T03:05:28.696Z,78.90
2018-06-21T03:07:57.838Z,79.30
2018-06-21T03:10:26.615Z,78.70
2018-06-21T03:12:55.723Z,78.60
2018-06-21T03:15:24.806Z,78.00
2018-06-21T03:17:53.925Z,77.60
2018-06-21T03:22:52.099Z,76.90
2018-06-21T03:25:21.061Z,76.60
2018-06-21T03:30:18.359Z,76.40
2018-06-21T03:32:47.530Z,75.70
2018-06-21T03:35:16.309Z,75.50
2018-06-21T03:37:45.148Z,75.30
2018-06-21T03:40:13.926Z,75.30
2018-06-21T03:42:42.747Z,75.50
2018-06-21T03:45:11.939Z,75.70
2018-06-21T03:47:40.974Z,75.80
2018-06-21T03:50:09.983Z,76.40
2018-06-21T03:52:39.134Z,76.00
2018-06-21T03:57:37.258Z,76.00
2018-06-21T04:00:06.717Z,76.10
2018-06-21T04:05:04.817Z,76.30
2018-06-21T04:07:34.216Z,76.20
2018-06-21T04:10:03.492Z,76.80
2018-06-21T04:12:32.961Z,76.40
2018-06-21T04:15:01.750Z,76.30
2018-06-21T04:17:30.539Z,76.00
2018-06-21T04:19:59.623Z,75.80
2018-06-21T04:22:28.407Z,75.70
2018-06-21T04:24:57.494Z,75.30
2018-06-21T04:27:26.574Z,74.90
2018-06-21T04:29:55.407Z,75.40
2018-06-21T04:32:24.282Z,74.60
2018-06-21T04:34:53.027Z,75.10
2018-06-21T04:39:50.551Z,75.20
2018-06-21T04:42:19.338Z,75.00
2018-06-21T04:44:48.123Z,74.20
2018-06-21T04:47:17.197Z,74.20
2018-06-21T04:49:46.306Z,74.00
2018-06-21T04:52:15.163Z,73.70
2018-06-21T04:54:44.220Z,73.40
2018-06-21T04:57:13.007Z,73.30
2018-06-21T04:59:41.835Z,73.30
2018-06-21T05:02:11.034Z,72.40
2018-06-21T05:04:40.674Z,71.70
2018-06-21T05:07:09.518Z,72.10
2018-06-21T05:14:35.516Z,71.20
2018-06-21T05:17:04.330Z,71.70
2018-06-21T05:19:33.576Z,70.80
2018-06-21T05:22:02.389Z,70.40
2018-06-21T05:24:31.379Z,70.90
2018-06-21T05:27:00.577Z,69.20
2018-06-21T05:29:29.403Z,69.10
2018-06-21T05:31:58.681Z,65.10
2018-06-21T05:34:27.942Z,64.80
2018-06-21T05:36:56.670Z,63.70
2018-06-21T05:39:25.538Z,60.40
2018-06-21T05:41:54.642Z,60.00
2018-06-21T05:44:23.514Z,58.90
2018-06-21T05:46:52.575Z,55.60
2018-06-21T05:49:21.883Z,56.00
2018-06-21T05:54:22.027Z,57.40
2018-06-21T05:59:21.627Z,59.60
2018-06-21T06:06:48.150Z,58.90
2018-06-21T06:09:17.365Z,58.80
2018-06-21T06:11:46.833Z,57.90
2018-06-21T06:14:15.935Z,58.00
2018-06-21T06:16:45.064Z,59.60
2018-06-21T06:19:13.844Z,60.40
2018-06-21T06:21:43.285Z,61.30
2018-06-21T06:24:12.427Z,62.00
2018-06-21T06:26:42.083Z,62.70
2018-06-21T06:29:11.550Z,62.80
2018-06-21T06:31:40.803Z,64.60
2018-06-21T06:34:10.402Z,65.10
2018-06-21T06:36:39.710Z,65.70
2018-06-21T06:39:17.554Z,66.40
2018-06-21T06:41:48.368Z,67.20
2018-06-21T06:44:17.194Z,67.60
2018-06-21T06:46:46.026Z,68.40
2018-06-21T06:49:14.815Z,69.40
2018-06-21T06:51:44.342Z,70.20
2018-06-21T06:54:13.478Z,70.60
2018-06-21T06:56:42.590Z,70.80
2018-06-21T06:59:12.362Z,72.00
2018-06-21T07:01:41.175Z,72.70
2018-06-21T07:04:09.998Z,73.60
2018-06-21T07:06:39.249Z,74.60
2018-06-21T07:09:08.720Z,89.90
2018-06-21T07:14:07.082Z,92.20
2018-06-21T07:16:36.262Z,94.40
2018-06-21T07:19:05.416Z,94.60
2018-06-21T07:24:06.764Z,97.20
2018-06-21T07:29:05.747Z,98.90
2018-06-21T07:31:35.207Z,96.70
2018-06-21T07:34:04.311Z,96.30
2018-06-21T07:36:33.145Z,96.30
2018-06-21T07:39:02.473Z,95.60
2018-06-21T07:41:31.807Z,95.80
2018-06-21T07:44:00.950Z,96.30
2018-06-21T07:46:30.062Z,95.20
2018-06-21T07:51:27.915Z,94.50
2018-06-21T07:53:57.571Z,95.90
2018-06-21T07:56:26.861Z,95.40
2018-06-21T08:01:24.790Z,94.00
2018-06-21T08:03:53.606Z,93.50
2018-06-21T08:06:22.782Z,94.10
2018-06-21T08:08:51.590Z,94.20
2018-06-21T08:11:21.441Z,94.30
2018-06-21T08:13:50.626Z,94.70
2018-06-21T08:18:48.527Z,95.00
2018-06-21T08:21:17.623Z,93.40
2018-06-21T08:23:46.395Z,93.90
2018-06-21T08:28:45.414Z,93.60
2018-06-21T08:31:14.482Z,92.60
2018-06-21T08:33:43.978Z,92.90
2018-06-21T08:36:13.564Z,92.20
2018-06-21T08:38:42.398Z,92.50
2018-06-21T08:41:11.118Z,93.00
2018-06-21T08:43:40.338Z,93.00
2018-06-21T08:46:09.184Z,93.50
2018-06-21T08:48:38.530Z,94.00
2018-06-21T08:51:07.310Z,93.60
2018-06-21T08:53:36.086Z,92.80
2018-06-21T08:58:34.369Z,93.20
2018-06-21T09:01:03.209Z,92.30
2018-06-21T09:03:31.983Z,92.00
2018-06-21T09:06:01.226Z,93.00
2018-06-21T09:13:35.080Z,91.30
2018-06-21T09:16:05.513Z,90.80
2018-06-21T09:18:34.759Z,90.30
2018-06-21T09:21:03.707Z,90.40
2018-06-21T09:23:33.407Z,90.20
2018-06-21T09:26:03.242Z,88.30
2018-06-21T09:28:32.058Z,86.50
2018-06-21T09:31:01.390Z,83.80
2018-06-21T09:35:59.411Z,82.80
2018-06-21T09:38:33.547Z,79.50
2018-06-21T09:41:07.851Z,76.90
2018-06-21T09:43:50.301Z,73.90
2018-06-21T09:46:16.903Z,73.40
2018-06-21T09:48:49.926Z,73.40
2018-06-21T09:51:20.034Z,74.80
2018-06-21T09:53:49.277Z,74.30
2018-06-21T09:56:18.069Z,75.30
2018-06-21T09:58:46.873Z,71.20
2018-06-21T10:01:16.059Z,67.80
2018-06-21T10:03:44.825Z,65.70
2018-06-21T10:08:42.450Z,63.70
2018-06-21T10:11:11.712Z,63.70
2018-06-21T10:13:40.468Z,63.40
2018-06-21T10:16:10.111Z,64.70
2018-06-21T10:18:39.259Z,64.30
2018-06-21T10:21:08.471Z,64.80
2018-06-21T10:23:37.572Z,65.50
2018-06-21T10:26:07.006Z,64.70
2018-06-21T10:28:37.025Z,64.20
2018-06-21T10:31:06.840Z,64.80
2018-06-21T10:33:35.933Z,63.80
2018-06-21T10:36:04.902Z,63.80
2018-06-21T10:38:34.174Z,63.40
2018-06-21T10:41:03.382Z,61.90
2018-06-21T10:43:32.458Z,62.30
2018-06-21T10:46:01.251Z,61.70
2018-06-21T10:48:30.322Z,62.80
2018-06-21T10:50:59.134Z,61.90
2018-06-21T10:53:28.692Z,63.70
2018-06-21T10:58:26.613Z,67.00
2018-06-21T11:00:55.825Z,66.60
2018-06-21T11:03:24.643Z,66.00
2018-06-21T11:05:53.722Z,67.60
2018-06-21T11:08:22.954Z,66.40
2018-06-21T11:13:20.795Z,63.00
2018-06-21T11:15:49.603Z,67.10
2018-06-21T11:18:18.369Z,68.50
2018-06-21T11:20:47.512Z,75.30
2018-06-21T11:25:45.511Z,76.40
2018-06-21T11:28:14.643Z,73.60
2018-06-21T11:30:44.516Z,71.00
2018-06-21T11:33:13.355Z,69.50
2018-06-21T11:35:43.016Z,66.10
2018-06-21T11:38:12.224Z,64.60
2018-06-21T11:40:40.974Z,62.00
2018-06-21T11:43:10.059Z,60.70
2018-06-21T11:45:39.467Z,58.60
2018-06-21T11:48:08.278Z,57.10
2018-06-21T11:50:37.376Z,55.80
2018-06-21T11:53:06.534Z,57.00
2018-06-21T11:55:35.361Z,55.20
2018-06-21T11:58:04.535Z,53.60
2018-06-21T12:00:33.756Z,51.80
2018-06-21T12:05:32.034Z,53.60
2018-06-21T12:08:00.806Z,52.70
2018-06-21T12:10:29.589Z,52.70
2018-06-21T12:12:59.954Z,49.80
2018-06-21T12:15:29.200Z,46.20
2018-06-21T12:17:57.978Z,47.20
2018-06-21T12:20:26.828Z,43.80
2018-06-21T12:22:56.126Z,43.70
2018-06-21T12:25:25.313Z,44.40
2018-06-21T12:27:54.099Z,43.80
2018-06-21T12:30:23.548Z,41.90
2018-06-21T12:32:52.653Z,42.80
2018-06-21T12:35:21.462Z,43.50
2018-06-21T12:37:50.246Z,47.50
2018-06-21T12:40:19.489Z,48.20
2018-06-21T12:42:48.667Z,47.60
2018-06-21T12:45:18.193Z,47.40
2018-06-21T12:47:47.632Z,46.00
2018-06-21T12:50:16.836Z,45.90
2018-06-21T12:52:45.793Z,49.40
2018-06-21T12:55:14.590Z,46.20
2018-06-21T12:57:43.348Z,46.90
2018-06-21T13:00:12.126Z,45.30
2018-06-21T13:02:41.322Z,41.80
2018-06-21T13:05:10.215Z,41.40
2018-06-21T13:07:39.287Z,41.20
2018-06-21T13:10:19.681Z,39.40
2018-06-21T13:13:05.534Z,38.40
2018-06-21T13:15:34.314Z,39.80
2018-06-21T13:18:03.082Z,40.90
2018-06-21T13:20:32.310Z,40.60
2018-06-21T13:23:01.552Z,40.70
2018-06-21T13:27:59.720Z,41.00
2018-06-21T13:30:28.510Z,40.70
2018-06-21T13:32:58.156Z,41.00
2018-06-21T13:35:27.032Z,40.60
2018-06-21T13:37:56.786Z,41.40
2018-06-21T13:40:25.620Z,42.30
2018-06-21T13:45:23.209Z,42.10
2018-06-21T13:47:52.270Z,38.80
2018-06-21T13:50:21.051Z,38.20
2018-06-21T13:52:49.836Z,38.10
2018-06-21T13:55:19.181Z,38.80
2018-06-21T13:57:47.928Z,39.30
2018-06-21T14:00:16.758Z,39.30
2018-06-21T14:02:45.866Z,38.30
2018-06-21T14:05:14.683Z,37.90
2018-06-21T14:07:43.789Z,38.50
2018-06-21T14:10:12.873Z,38.60
2018-06-21T14:12:42.029Z,38.90
2018-06-21T14:15:11.330Z,38.80
2018-06-21T14:17:40.146Z,38.10
2018-06-21T14:20:09.258Z,38.60
2018-06-21T14:22:38.098Z,39.70
2018-06-21T14:25:07.530Z,39.80
2018-06-21T14:27:36.325Z,40.00
2018-06-21T14:30:05.964Z,40.20
2018-06-21T14:32:34.809Z,41.10
2018-06-21T14:35:04.100Z,41.10
2018-06-21T14:37:33.805Z,41.10
2018-06-21T14:40:02.921Z,41.70
2018-06-21T14:42:32.201Z,42.00
2018-06-21T14:45:01.667Z,41.40
2018-06-21T14:47:31.101Z,41.10
2018-06-21T14:52:29.562Z,41.20
2018-06-21T14:54:58.666Z,41.80
2018-06-21T14:57:27.770Z,42.20
2018-06-21T14:59:56.902Z,43.20
2018-06-21T15:02:26.606Z,43.60
2018-06-21T15:07:24.998Z,43.20
2018-06-21T15:09:53.762Z,42.50
2018-06-21T15:12:22.838Z,42.80
2018-06-21T15:14:51.638Z,40.70
2018-06-21T15:17:20.473Z,44.20
2018-06-21T15:19:49.298Z,41.40
2018-06-21T15:22:19.210Z,42.00
2018-06-21T15:24:48.286Z,43.60
2018-06-21T15:27:17.091Z,43.70
2018-06-21T15:29:46.534Z,44.90
2018-06-21T15:32:15.440Z,44.50
2018-06-21T15:34:45.201Z,44.90
2018-06-21T15:37:13.970Z,45.70
2018-06-21T15:39:42.774Z,44.80
2018-06-21T15:42:12.336Z,45.20
2018-06-21T15:44:41.573Z,45.70
2018-06-21T15:47:10.347Z,46.00
2018-06-21T15:49:39.135Z,46.00
2018-06-21T15:52:07.939Z,47.00
2018-06-21T15:54:37.097Z,46.30
2018-06-21T15:57:06.211Z,45.90
2018-06-21T15:59:35.392Z,43.30
2018-06-21T16:02:04.976Z,45.00
2018-06-21T16:04:34.373Z,43.10
2018-06-21T16:07:03.176Z,44.30
2018-06-21T16:12:01.193Z,46.00
2018-06-21T16:14:29.962Z,46.70
2018-06-21T16:19:27.760Z,47.90
2018-06-21T16:21:57.043Z,47.90
2018-06-21T16:24:26.162Z,47.90
2018-06-21T16:26:54.953Z,48.00
2018-06-21T16:29:23.779Z,48.50
2018-06-21T16:31:53.499Z,49.40
2018-06-21T16:34:22.524Z,51.30
2018-06-21T16:36:51.270Z,48.30
2018-06-21T16:39:20.078Z,48.10
2018-06-21T16:44:17.674Z,47.50
2018-06-21T16:46:46.877Z,48.10
2018-06-21T16:49:16.257Z,48.90
2018-06-21T16:59:11.714Z,51.90
2018-06-21T17:01:40.545Z,52.10
2018-06-21T17:04:09.726Z,53.30
2018-06-21T17:06:38.613Z,53.50
2018-06-21T17:09:08.220Z,53.60
2018-06-21T17:11:37.810Z,49.80
2018-06-21T17:14:06.926Z,49.90
2018-06-21T17:16:35.814Z,49.20
2018-06-21T17:19:04.784Z,49.30
2018-06-21T17:21:33.947Z,49.80
2018-06-21T17:24:02.759Z,49.80
2018-06-21T17:26:31.838Z,50.00
2018-06-21T17:29:01.113Z,50.20
2018-06-21T17:31:30.107Z,50.20
2018-06-21T17:33:58.916Z,49.20
2018-06-21T17:36:28.047Z,50.20
2018-06-21T17:38:56.832Z,50.30
2018-06-21T17:41:25.997Z,50.90
2018-06-21T17:43:54.794Z,51.40
2018-06-21T17:46:24.011Z,51.70
2018-06-21T17:48:52.785Z,52.20
2018-06-21T17:51:22.251Z,52.60
2018-06-21T17:53:51.838Z,53.10
2018-06-21T17:56:20.965Z,53.10
2018-06-21T17:58:49.807Z,52.90
2018-06-21T18:01:18.877Z,53.30
2018-06-21T18:03:48.081Z,54.00
2018-06-21T18:06:17.079Z,54.60
2018-06-21T18:08:46.906Z,54.70
2018-06-21T18:13:46.164Z,55.40
2018-06-21T18:16:15.034Z,55.70
2018-06-21T18:18:44.143Z,56.50
2018-06-21T18:21:13.274Z,56.20
2018-06-21T18:23:42.079Z,52.90
2018-06-21T18:26:11.761Z,51.40
2018-06-21T18:28:40.567Z,50.50
2018-06-21T18:31:10.044Z,49.50
2018-06-21T18:33:39.746Z,49.50
2018-06-21T18:36:09.639Z,50.10
2018-06-21T18:38:39.146Z,50.90
2018-06-21T18:41:08.007Z,51.80
2018-06-21T18:43:37.334Z,52.60
2018-06-21T18:48:35.009Z,53.60
2018-06-21T18:51:03.836Z,54.10
2018-06-21T18:53:32.857Z,54.20
2018-06-21T18:56:02.363Z,54.40
2018-06-21T18:58:31.149Z,54.90
2018-06-21T19:00:59.980Z,55.40
2018-06-21T19:03:28.864Z,55.70
2018-06-21T19:08:32.049Z,55.90
2018-06-21T19:11:06.564Z,56.10
2018-06-21T19:13:39.935Z,56.60
2018-06-21T19:16:08.802Z,57.00
2018-06-21T19:18:38.395Z,57.30
2018-06-21T19:21:07.246Z,57.40
2018-06-21T19:23:36.342Z,57.60
2018-06-21T19:26:06.088Z,58.30
2018-06-21T19:28:35.028Z,58.70
2018-06-21T19:31:05.495Z,59.30
2018-06-21T19:33:34.821Z,59.60
2018-06-21T19:36:04.174Z,60.00
2018-06-21T19:38:33.711Z,60.20
2018-06-21T19:43:31.666Z,60.40
2018-06-21T19:46:00.774Z,60.90
2018-06-21T19:48:29.558Z,60.90
2018-06-21T19:50:59.011Z,61.40
2018-06-21T19:53:34.594Z,61.80
2018-06-21T19:56:03.403Z,62.00
2018-06-21T19:58:32.498Z,62.50
2018-06-21T20:01:01.717Z,63.50
2018-06-21T20:03:31.254Z,62.90
2018-06-21T20:06:00.063Z,62.90
2018-06-21T20:08:28.865Z,62.10
2018-06-21T20:11:03.453Z,62.60
2018-06-21T20:13:45.405Z,62.60
2018-06-21T20:16:14.290Z,62.00
2018-06-21T20:18:43.429Z,62.20
2018-06-21T20:21:13.613Z,62.20
2018-06-21T20:23:44.296Z,62.00
2018-06-21T20:26:13.291Z,62.50
2018-06-21T20:28:42.431Z,62.20
2018-06-21T20:31:13.748Z,62.80
2018-06-21T20:33:45.054Z,62.70
2018-06-21T20:36:14.895Z,63.00
2018-06-21T20:38:44.142Z,63.00
2018-06-21T20:41:13.041Z,63.80
2018-06-21T20:43:42.111Z,64.00
2018-06-21T20:46:10.920Z,64.30
2018-06-21T20:48:39.838Z,65.10
2018-06-21T20:51:09.542Z,65.00
2018-06-21T20:53:38.385Z,65.30
2018-06-21T20:56:07.202Z,66.50
2018-06-21T20:58:36.042Z,66.80
2018-06-21T21:01:04.859Z,66.30
2018-06-21T21:03:33.739Z,67.00
2018-06-21T21:06:02.532Z,67.40
2018-06-21T21:08:31.746Z,67.80
2018-06-21T21:11:00.594Z,68.20
2018-06-21T21:13:29.822Z,69.20
2018-06-21T21:15:58.623Z,70.50
2018-06-21T21:18:28.206Z,69.90
2018-06-21T21:20:57.025Z,70.00
2018-06-21T21:25:54.647Z,70.80
2018-06-21T21:28:24.188Z,71.10
2018-06-21T21:30:52.951Z,70.80
2018-06-21T21:33:22.091Z,70.90
2018-06-21T21:35:50.898Z,71.40
2018-06-21T21:38:20.209Z,71.60
2018-06-21T21:40:49.182Z,71.30
2018-06-21T21:43:18.594Z,72.30
2018-06-21T21:45:47.662Z,71.00
2018-06-21T21:48:16.793Z,71.40
2018-06-21T21:50:45.610Z,71.80
2018-06-21T21:53:14.406Z,71.60
2018-06-21T21:55:43.257Z,71.40
2018-06-21T21:58:12.006Z,71.50
2018-06-21T22:00:45.290Z,71.60
2018-06-21T22:03:14.090Z,71.50
2018-06-21T22:05:43.739Z,71.70
2018-06-21T22:08:13.306Z,71.60
2018-06-21T22:10:43.874Z,71.60
2018-06-21T22:13:13.652Z,72.00
2018-06-21T22:15:42.859Z,72.20
2018-06-21T22:20:40.994Z,73.40
2018-06-21T22:23:09.794Z,73.20
2018-06-21T22:25:38.597Z,73.50
2018-06-21T22:28:07.437Z,73.80
2018-06-21T22:30:36.577Z,74.20
2018-06-21T22:33:05.840Z,74.60
2018-06-21T22:35:34.651Z,75.10
2018-06-21T22:38:03.845Z,75.40
2018-06-21T22:40:32.970Z,75.80
2018-06-21T22:43:02.086Z,76.00
2018-06-21T22:45:30.868Z,75.80
2018-06-21T22:48:00.110Z,76.40
2018-06-21T22:50:29.663Z,75.90
2018-06-21T22:52:58.742Z,76.10
2018-06-21T22:55:27.538Z,76.10
2018-06-21T22:57:56.758Z,76.00
2018-06-21T23:00:25.982Z,76.50
2018-06-21T23:02:54.749Z,76.10
2018-06-21T23:05:23.554Z,75.80
2018-06-21T23:07:52.612Z,75.20
2018-06-21T23:10:21.703Z,75.40
2018-06-21T23:12:51.162Z,75.90
2018-06-21T23:15:20.178Z,76.30
2018-06-21T23:17:48.991Z,76.20
2018-06-21T23:20:18.186Z,76.30
2018-06-21T23:22:47.418Z,76.30
2018-06-21T23:25:16.202Z,76.20
2018-06-21T23:32:41.915Z,76.20
2018-06-21T23:37:39.957Z,76.60
2018-06-21T23:40:08.711Z,76.20
2018-06-21T23:42:37.902Z,76.60
2018-06-21T23:45:07.117Z,77.00
2018-06-21T23:47:36.201Z,77.00
2018-06-21T23:50:05.690Z,79.00
2018-06-21T23:52:34.507Z,77.30
2018-06-21T23:55:03.866Z,77.90
2018-06-21T23:57:32.667Z,79.30
